Rechercher aéroport 
image banner adimage banner adimage banner ad
image banner ad

CA56 - Correctional Training Facility

Situé à Soledad, United States

ICAO - CA56, IATA -

Données fournies par Airmate  

Information générale

Coordonnées: N36°28'6" W121°22'48"
Élévation : 180 feet MSL.
Variation magnétique : 15° East
Voir autres Aéroports à California

Données opérationnelles

Special qualification required
Heure actuelle UTC:
Heure actuelle locale:
Météo à : KSNS - Salinas Muni ( 30 km )
METAR: KSNS 262253Z AUTO 32012KT 10SM 20/13 A2996 RMK AO2 SLP154 T02000133 $
TAF: KSNS 261720Z 2618/2718 32003KT P6SM SCT010 TEMPO 2618/2619 OVC006 FM262000 31012KT P6SM SCT200 FM270230 32007KT 6SM BR VCSH OVC006 TEMPO 2710/2712 OVC003 FM271630 34002KT 4SM HZ SCT007
Voir NOTAMs / SUP AIP / TFR affectant cet aéroport [VIEW]
Fréquences de communication: [VIEW]

Pistes:

Coordonnées de l'aéroport

Adresse: Soledad United States

Vue satellite de CA56